Mirai — JNSR — position and weather

sailwx.info

Track history (hours):
 
Tides and Currents Weather Stations Pressure Air Temp Water Temp Dewpoint Dewpoint Depression Visibility Wind Speed Wind Dir Waves Ship Positions

Oceanographic research ship Mirai (Japan)

Detailed information on ship capabilities available from University of Delaware's Ocean Information Center and ARCUS's ALIAS (Arctic Logistics Information and Support) project.

Last reported at 2018-Jun-11 06:17 UTC. Time now 2018-Dec-12 16:25 UTC.
Position N 33°41' E 135°02'.
Warning: this ship's position is months out of date.

Length 128.6 m; beam 19 m; draft 6.9 m.

Type: Other ship. MMSI: 431939000.

Date/timePositionNaut miles runAvg speedWind from/ knotsBaromVisibWave heightAir tempDewpointWater temp
2018-Jun-11 06:17N 33°41' E 135°02'412.0
2018-Jun-11 05:55N 33°46' E 135°01'511.8
2018-Jun-11 05:31N 33°50' E 135°01'511.0
2018-Jun-11 05:01N 33°56' E 135°02'2 3.7
2018-Jun-11 04:29N 33°57' E 135°04'2 3.3
2018-Jun-11 03:59N 33°56' E 135°02'1 2.9
2018-Jun-11 03:30N 33°58' E 135°02'1 1.3
2018-Jun-11 03:00N 33°58' E 135°01'714.9
2018-Jun-11 02:31N 34°05' E 135°02'3 6.6
2018-Jun-11 02:00N 34°02' E 135°02'4 8.1
2018-Jun-11 01:30N 33°58' E 135°02'1 1.4
2018-Jun-11 00:52N 33°57' E 135°02'  
Track history (hours):
 
Tides and Currents Weather Stations Pressure Air Temp Water Temp Dewpoint Dewpoint Depression Visibility Wind Speed Wind Dir Waves Ship Positions

Oceanographic research ship Mirai (Japan)

Detailed information on ship capabilities available from University of Delaware's Ocean Information Center and ARCUS's ALIAS (Arctic Logistics Information and Support) project.

Last reported at 2018-Jun-11 06:17 UTC. Time now 2018-Dec-12 16:25 UTC.
Position N 33°41' E 135°02'.
Warning: this ship's position is months out of date.

Length 128.6 m; beam 19 m; draft 6.9 m.

Type: Other ship. MMSI: 431939000.

Date/timePositionNaut miles runAvg speedWind from/ knotsBaromVisibWave heightAir tempDewpointWater temp
2018-Jun-11 06:17N 33°41' E 135°02'412.0
2018-Jun-11 05:55N 33°46' E 135°01'511.8
2018-Jun-11 05:31N 33°50' E 135°01'511.0
2018-Jun-11 05:01N 33°56' E 135°02'2 3.7
2018-Jun-11 04:29N 33°57' E 135°04'2 3.3
2018-Jun-11 03:59N 33°56' E 135°02'1 2.9
2018-Jun-11 03:30N 33°58' E 135°02'1 1.3
2018-Jun-11 03:00N 33°58' E 135°01'714.9
2018-Jun-11 02:31N 34°05' E 135°02'3 6.6
2018-Jun-11 02:00N 34°02' E 135°02'4 8.1
2018-Jun-11 01:30N 33°58' E 135°02'1 1.4
2018-Jun-11 00:52N 33°57' E 135°02'  

Dump ship's entire track history